Estación de Los Maquis

Ultimos registro cada 15 minutos 66
Estación Fecha / Hora Temperatura Humedad Lluvia Velocidad Dirección Radiación Presion
66 Los Maquis 03-05-2026 16:15 20,7 45 0 0,4 40 116 1021,4
65 Los Maquis 03-05-2026 16:00 20,9 45 0 0 71 130 1021,6
64 Los Maquis 03-05-2026 15:45 21,1 43 0 1,8 260 185 1021,5
63 Los Maquis 03-05-2026 15:30 20,8 46 0 1,8 241 178 1021,4
62 Los Maquis 03-05-2026 15:15 20,8 44 0 1,8 252 171 1021,3
61 Los Maquis 03-05-2026 15:00 21 43 0 1,3 269 192 1021,2
60 Los Maquis 03-05-2026 14:45 21,8 32 0 2,2 268 195 1021,3
59 Los Maquis 03-05-2026 14:30 22,6 38 0 2,2 304 276 1021,3
58 Los Maquis 03-05-2026 14:15 22,5 43 0 0,4 279 473 1021
57 Los Maquis 03-05-2026 14:00 22 45 0 0,9 263 749 1021,1
56 Los Maquis 03-05-2026 13:45 21,3 46 0 1,3 9 339 1021,3
55 Los Maquis 03-05-2026 13:30 21,2 46 0 0,4 18 308 1021,6
54 Los Maquis 03-05-2026 13:15 20,8 47 0 1,3 262 355 1021,9
53 Los Maquis 03-05-2026 13:00 19,9 52 0 0,4 340 366 1022
52 Los Maquis 03-05-2026 12:45 19,7 52 0 0,9 286 274 1022,1
51 Los Maquis 03-05-2026 12:30 19,3 54 0 0,4 296 357 1022,2
50 Los Maquis 03-05-2026 12:15 19,1 54 0 0,4 286 264 1022,4
49 Los Maquis 03-05-2026 12:00 19,2 52 0 0,9 298 304 1022,6
48 Los Maquis 03-05-2026 11:45 19,3 51 0 1,3 283 258 1022,7
47 Los Maquis 03-05-2026 11:30 19,3 51 0 0,4 333 279 1022,6
46 Los Maquis 03-05-2026 11:15 18,6 54 0 1,8 346 432 1023
45 Los Maquis 03-05-2026 11:00 17,9 57 0 1,3 335 508 1023,2
44 Los Maquis 03-05-2026 10:45 17,3 59 0 0,9 256 473 1023,2
43 Los Maquis 03-05-2026 10:30 16,6 61 0 0,9 251 443 1023,1
42 Los Maquis 03-05-2026 10:15 16,2 62 0 0,9 354 332 1023,2
41 Los Maquis 03-05-2026 10:00 15,7 65 0 3,1 276 403 1023,3
40 Los Maquis 03-05-2026 09:45 14,9 67 0 0,4 302 422 1023,2
39 Los Maquis 03-05-2026 09:30 15,5 63 0 0 331 251 1023,1
38 Los Maquis 03-05-2026 09:15 15,2 65 0 0 62 76 1023,1
37 Los Maquis 03-05-2026 09:00 12,8 70 0 0,4 75 125 1023,2
36 Los Maquis 03-05-2026 08:45 10,3 79 0 0,4 89 167 1022,8
35 Los Maquis 03-05-2026 08:30 9,3 79 0 0,4 104 91 1022,6
34 Los Maquis 03-05-2026 08:15 8,4 82 0 0 86 19 1022,7
33 Los Maquis 03-05-2026 08:00 8,1 81 0 0 204 16 1022,7
32 Los Maquis 03-05-2026 07:45 8,2 81 0 0 76 12 1022,1
31 Los Maquis 03-05-2026 07:30 7,8 82 0 0 154 7 1022,3
30 Los Maquis 03-05-2026 07:15 7,8 82 0 0 128 0 1021,9
29 Los Maquis 03-05-2026 07:00 7,9 82 0 0 180 0 1021,7
28 Los Maquis 03-05-2026 06:45 8,1 81 0 0 31 0 1021,9
27 Los Maquis 03-05-2026 06:30 8,4 81 0 0,4 175 0 1021,5
26 Los Maquis 03-05-2026 06:15 8 83 0 0 145 0 1021,3
25 Los Maquis 03-05-2026 06:00 8,3 83 0 0,4 88 0 1021,5
24 Los Maquis 03-05-2026 05:45 7,9 87 0 0 103 0 1022,1
23 Los Maquis 03-05-2026 05:30 7,3 87 0 0 197 0 1022,3
22 Los Maquis 03-05-2026 05:15 7,6 85 0 0 90 0 1022,1
21 Los Maquis 03-05-2026 05:00 7,7 85 0 0 91 0 1022,4
20 Los Maquis 03-05-2026 04:45 7,7 86 0 0,4 117 0 1022,7
19 Los Maquis 03-05-2026 04:30 8,1 83 0 0 73 0 1022,6
18 Los Maquis 03-05-2026 04:15 8,7 82 0 0 248 0 1021,8
17 Los Maquis 03-05-2026 04:00 8,5 82 0 0 190 0 1021,6
16 Los Maquis 03-05-2026 03:45 8,8 82 0 0 115 0 1021,8
15 Los Maquis 03-05-2026 03:30 8,9 84 0 0,4 79 0 1022,2
14 Los Maquis 03-05-2026 03:15 8,2 85 0 0 85 0 1022,5
13 Los Maquis 03-05-2026 03:00 9 81 0 0,4 158 0 1022,6
12 Los Maquis 03-05-2026 02:45 10,1 80 0 0,4 54 0 1022,2
11 Los Maquis 03-05-2026 02:30 9,7 79 0 0,9 190 0 1022,4
10 Los Maquis 03-05-2026 02:15 9,6 79 0 0 104 0 1022,4
9 Los Maquis 03-05-2026 02:00 9,7 80 0 0,4 84 0 1022,4
8 Los Maquis 03-05-2026 01:45 9,9 79 0 0 154 0 1022,2
7 Los Maquis 03-05-2026 01:30 10,3 78 0 0 99 0 1022,4
6 Los Maquis 03-05-2026 01:15 10,1 79 0 0 91 0 1022,3
5 Los Maquis 03-05-2026 01:00 9,8 80 0 0 158 0 1022,1
4 Los Maquis 03-05-2026 00:45 10,1 79 0 0 217 0 1022
3 Los Maquis 03-05-2026 00:30 10,4 78 0 0 152 0 1022
2 Los Maquis 03-05-2026 00:15 10,2 79 0 0 194 0 1022,2
1 Los Maquis 03-05-2026 00:00 10,4 78 0 0 104 0 1022,4